createdAt,value
2019-02-27T00:00:15.945Z,8.85
2019-02-27T00:02:43.266Z,12.45
2019-02-27T00:05:10.556Z,12.45
2019-02-27T00:07:37.306Z,13.83
2019-02-27T00:10:06.738Z,12.88
2019-02-27T00:12:34.748Z,11.08
2019-02-27T00:15:02.195Z,11.78
2019-02-27T00:17:31.005Z,12.05
2019-02-27T00:19:58.407Z,9.65
2019-02-27T00:22:25.245Z,9.35
2019-02-27T00:24:52.015Z,9.08
2019-02-27T00:27:19.221Z,9.18
2019-02-27T00:29:46.023Z,9.85
2019-02-27T00:32:15.787Z,10.88
2019-02-27T00:34:43.227Z,13.13
2019-02-27T00:37:10.143Z,10.43
2019-02-27T00:39:37.060Z,16.30
2019-02-27T00:42:04.218Z,9.98
2019-02-27T00:44:34.029Z,9.30
2019-02-27T00:46:59.935Z,10.45
2019-02-27T00:49:27.019Z,11.12
2019-02-27T00:51:54.171Z,11.38
2019-02-27T00:54:21.304Z,11.53
2019-02-27T00:56:48.080Z,11.88
2019-02-27T00:59:15.176Z,10.32
2019-02-27T01:01:47.306Z,9.18
2019-02-27T01:04:12.679Z,9.90
2019-02-27T01:06:39.465Z,11.85
2019-02-27T01:09:07.033Z,10.45
2019-02-27T01:11:33.972Z,11.33
2019-02-27T01:14:03.720Z,10.65
2019-02-27T01:16:29.876Z,11.18
2019-02-27T01:18:56.764Z,10.85
2019-02-27T01:21:23.518Z,10.93
2019-02-27T01:23:50.275Z,10.65
2019-02-27T01:26:17.232Z,13.32
2019-02-27T01:28:45.463Z,12.63
2019-02-27T01:31:13.258Z,11.10
2019-02-27T01:33:40.083Z,14.13
2019-02-27T01:36:06.907Z,11.15
2019-02-27T01:41:59.364Z,9.85
2019-02-27T01:44:44.014Z,10.32
2019-02-27T01:50:55.079Z,13.10
2019-02-27T01:53:37.952Z,10.28
2019-02-27T01:56:12.275Z,9.60
2019-02-27T01:58:54.265Z,10.45
2019-02-27T02:01:21.574Z,9.65
2019-02-27T02:03:48.476Z,9.40
2019-02-27T02:06:15.234Z,11.12
2019-02-27T02:08:48.020Z,11.33
2019-02-27T02:11:13.665Z,11.55
2019-02-27T02:13:52.512Z,12.03
2019-02-27T02:16:34.416Z,9.25
2019-02-27T02:19:30.610Z,10.80
2019-02-27T02:22:32.896Z,13.00
2019-02-27T02:25:32.785Z,12.15
2019-02-27T02:28:26.564Z,9.58
2019-02-27T02:31:08.216Z,10.08
2019-02-27T02:34:09.141Z,11.22
2019-02-27T02:37:11.708Z,12.37
2019-02-27T02:40:12.996Z,10.03
2019-02-27T02:43:05.382Z,9.58
2019-02-27T02:46:08.865Z,10.53
2019-02-27T02:49:06.203Z,10.65
2019-02-27T02:51:37.014Z,12.47
2019-02-27T02:54:39.064Z,9.90
2019-02-27T02:57:20.044Z,8.78
2019-02-27T03:00:01.905Z,8.10
2019-02-27T03:02:46.932Z,9.18
2019-02-27T03:05:28.374Z,11.48
2019-02-27T03:08:20.215Z,9.80
2019-02-27T03:11:02.472Z,9.38
2019-02-27T03:13:49.986Z,11.28
2019-02-27T03:16:31.779Z,9.78
2019-02-27T03:19:41.793Z,10.30
2019-02-27T03:22:40.397Z,13.85
2019-02-27T03:25:40.699Z,9.65
2019-02-27T03:28:40.937Z,10.40
2019-02-27T03:31:40.192Z,10.48
2019-02-27T03:34:22.365Z,10.32
2019-02-27T03:37:15.072Z,14.05
2019-02-27T03:39:59.567Z,12.47
2019-02-27T03:43:10.190Z,12.37
2019-02-27T03:46:19.957Z,11.20
2019-02-27T03:49:04.720Z,11.68
2019-02-27T03:51:59.697Z,13.00
2019-02-27T03:54:48.488Z,13.05
2019-02-27T03:57:56.707Z,10.13
2019-02-27T04:00:55.285Z,9.65
2019-02-27T04:04:02.986Z,10.40
2019-02-27T04:06:56.460Z,10.15
2019-02-27T04:09:22.934Z,13.62
2019-02-27T04:11:50.007Z,11.63
2019-02-27T04:14:32.128Z,11.40
2019-02-27T04:17:05.507Z,11.93
2019-02-27T04:19:27.911Z,12.18
2019-02-27T04:22:00.593Z,13.25
2019-02-27T04:24:23.390Z,10.80
2019-02-27T04:26:50.195Z,10.58
2019-02-27T04:29:17.037Z,10.45
2019-02-27T04:31:43.771Z,11.45
2019-02-27T04:34:11.061Z,12.70
2019-02-27T04:36:37.897Z,11.80
2019-02-27T04:39:06.050Z,9.68
2019-02-27T04:41:33.040Z,10.53
2019-02-27T04:44:02.973Z,9.60
2019-02-27T04:46:29.538Z,10.05
2019-02-27T04:48:56.331Z,10.60
2019-02-27T04:51:23.901Z,9.35
2019-02-27T04:53:51.193Z,11.22
2019-02-27T04:56:17.992Z,10.30
2019-02-27T04:58:44.734Z,11.68
2019-02-27T05:01:11.582Z,11.15
2019-02-27T05:03:38.896Z,13.98
2019-02-27T05:06:05.886Z,11.73
2019-02-27T05:08:32.687Z,10.82
2019-02-27T05:10:59.579Z,13.28
2019-02-27T05:13:26.352Z,11.48
2019-02-27T05:15:53.669Z,12.95
2019-02-27T05:18:20.514Z,13.03
2019-02-27T05:20:47.456Z,11.00
2019-02-27T05:23:14.232Z,12.58
2019-02-27T05:25:41.083Z,10.72
2019-02-27T05:28:07.869Z,8.75
2019-02-27T05:30:34.619Z,11.70
2019-02-27T05:33:02.766Z,12.15
2019-02-27T05:35:30.193Z,9.18
2019-02-27T05:37:57.147Z,11.43
2019-02-27T05:40:25.945Z,10.90
2019-02-27T05:42:52.943Z,10.95
2019-02-27T05:45:19.760Z,10.80
2019-02-27T05:47:46.637Z,13.05
2019-02-27T05:50:13.381Z,11.68
2019-02-27T05:52:40.421Z,19.95
2019-02-27T05:55:07.161Z,16.17
2019-02-27T05:57:34.020Z,17.05
2019-02-27T06:00:02.635Z,18.25
2019-02-27T06:02:30.316Z,15.58
2019-02-27T06:04:59.170Z,12.33
2019-02-27T06:07:26.059Z,12.60
2019-02-27T06:09:52.881Z,11.38
2019-02-27T06:12:20.018Z,11.53
2019-02-27T06:14:46.796Z,11.53
2019-02-27T06:17:13.657Z,13.32
2019-02-27T06:19:40.385Z,9.98
2019-02-27T06:22:07.291Z,11.63
2019-02-27T06:24:34.052Z,12.73
2019-02-27T06:27:00.823Z,11.70
2019-02-27T06:29:28.361Z,10.30
2019-02-27T06:31:55.480Z,12.25
2019-02-27T06:34:24.855Z,10.93
2019-02-27T06:36:51.495Z,12.50
2019-02-27T06:39:18.321Z,10.43
2019-02-27T06:41:47.419Z,11.03
2019-02-27T06:44:14.078Z,12.40
2019-02-27T06:46:40.995Z,13.00
2019-02-27T06:49:07.710Z,12.33
2019-02-27T06:51:35.776Z,10.98
2019-02-27T06:54:03.186Z,12.70
2019-02-27T06:56:30.776Z,10.30
2019-02-27T06:58:57.505Z,11.70
2019-02-27T07:01:24.396Z,11.33
2019-02-27T07:03:51.134Z,11.78
2019-02-27T07:06:21.327Z,13.15
2019-02-27T07:08:46.906Z,12.30
2019-02-27T07:11:14.037Z,10.88
2019-02-27T07:13:41.042Z,12.73
2019-02-27T07:16:08.516Z,11.90
2019-02-27T07:18:36.465Z,10.70
2019-02-27T07:21:03.350Z,12.80
2019-02-27T07:23:30.525Z,12.33
2019-02-27T07:25:59.351Z,12.68
2019-02-27T07:28:26.243Z,12.73
2019-02-27T07:30:52.999Z,13.32
2019-02-27T07:33:20.257Z,12.28
2019-02-27T07:35:47.750Z,12.47
2019-02-27T07:38:14.646Z,13.00
2019-02-27T07:40:42.921Z,12.15
2019-02-27T07:43:10.775Z,15.15
2019-02-27T07:45:42.802Z,16.80
2019-02-27T07:48:09.173Z,14.80
2019-02-27T07:50:36.340Z,13.45
2019-02-27T07:53:03.230Z,12.68
2019-02-27T07:55:30.442Z,15.28
2019-02-27T07:57:58.758Z,17.17
2019-02-27T08:00:26.626Z,14.35
2019-02-27T08:02:54.036Z,14.60
2019-02-27T08:05:20.984Z,19.37
2019-02-27T08:07:49.156Z,17.52
2019-02-27T08:10:22.604Z,16.82
2019-02-27T08:12:49.780Z,21.90
2019-02-27T08:15:18.336Z,14.40
2019-02-27T08:17:45.257Z,18.17
2019-02-27T08:20:14.826Z,15.28
2019-02-27T08:22:42.192Z,15.28
2019-02-27T08:25:17.221Z,17.23
2019-02-27T08:27:44.025Z,19.50
2019-02-27T08:30:22.025Z,23.80
2019-02-27T08:32:48.766Z,18.57
2019-02-27T08:35:16.694Z,19.37
2019-02-27T08:37:44.009Z,18.35
2019-02-27T08:40:12.384Z,22.40
2019-02-27T08:42:40.527Z,18.73
2019-02-27T08:45:20.090Z,22.82
2019-02-27T08:47:47.458Z,21.40
2019-02-27T08:50:16.563Z,18.12
2019-02-27T08:52:44.476Z,22.32
2019-02-27T08:55:19.984Z,19.70
2019-02-27T08:57:43.693Z,14.68
2019-02-27T09:00:23.745Z,18.45
2019-02-27T09:02:50.491Z,21.33
2019-02-27T09:05:20.018Z,18.75
2019-02-27T09:07:46.707Z,18.42
2019-02-27T09:10:17.172Z,17.80
2019-02-27T09:12:45.388Z,18.92
2019-02-27T09:15:13.555Z,14.53
2019-02-27T09:17:40.814Z,17.10
2019-02-27T09:20:19.682Z,12.43
2019-02-27T09:22:46.644Z,13.15
2019-02-27T09:25:13.525Z,14.60
2019-02-27T09:27:40.277Z,16.35
2019-02-27T09:30:17.967Z,14.95
2019-02-27T09:32:46.031Z,14.87
2019-02-27T09:35:13.160Z,14.10
2019-02-27T09:37:43.538Z,12.95
2019-02-27T09:40:26.268Z,15.93
2019-02-27T09:42:53.982Z,14.68
2019-02-27T09:45:31.297Z,17.50
2019-02-27T09:47:59.871Z,13.98
2019-02-27T09:50:48.251Z,15.70
2019-02-27T09:53:15.156Z,18.37
2019-02-27T09:55:42.423Z,22.85
2019-02-27T09:58:11.519Z,16.90
2019-02-27T10:01:00.291Z,30.90
2019-02-27T10:03:27.631Z,43.25
2019-02-27T10:05:54.496Z,20.50
2019-02-27T10:08:21.268Z,20.72
2019-02-27T10:10:48.145Z,22.17
2019-02-27T10:13:15.514Z,17.30
2019-02-27T10:15:42.257Z,20.90
2019-02-27T10:18:08.980Z,17.90
2019-02-27T10:20:37.307Z,24.15
2019-02-27T10:23:04.820Z,20.90
2019-02-27T10:25:31.606Z,18.57
2019-02-27T10:28:03.380Z,25.88
2019-02-27T10:30:27.052Z,22.77
2019-02-27T10:32:53.792Z,18.20
2019-02-27T10:35:20.552Z,21.82
2019-02-27T10:37:50.247Z,16.07
2019-02-27T10:40:21.895Z,20.00
2019-02-27T10:42:50.429Z,24.52
2019-02-27T10:45:18.538Z,24.37
2019-02-27T10:47:45.348Z,20.60
2019-02-27T10:50:14.261Z,25.32
2019-02-27T10:52:41.407Z,28.35
2019-02-27T10:55:18.998Z,18.82
2019-02-27T10:57:45.773Z,20.70
2019-02-27T11:00:31.713Z,21.87
2019-02-27T11:02:59.777Z,30.43
2019-02-27T11:05:29.624Z,23.32
2019-02-27T11:07:56.960Z,20.62
2019-02-27T11:10:24.000Z,23.42
2019-02-27T11:12:50.793Z,23.95
2019-02-27T11:15:19.238Z,21.00
2019-02-27T11:17:46.171Z,22.10
2019-02-27T11:20:13.675Z,22.85
2019-02-27T11:22:41.366Z,22.58
2019-02-27T11:25:15.273Z,37.73
2019-02-27T11:27:42.099Z,23.05
2019-02-27T11:30:25.827Z,18.95
2019-02-27T11:32:56.791Z,19.17
2019-02-27T11:35:22.027Z,20.15
2019-02-27T11:37:50.465Z,20.12
2019-02-27T11:40:23.901Z,18.60
2019-02-27T11:42:50.844Z,13.88
2019-02-27T11:45:18.201Z,18.57
2019-02-27T11:47:47.949Z,18.10
2019-02-27T11:50:17.856Z,20.85
2019-02-27T11:52:49.053Z,17.55
2019-02-27T11:55:19.818Z,18.67
2019-02-27T11:57:46.590Z,22.32
2019-02-27T12:00:30.600Z,19.50
2019-02-27T12:02:57.748Z,15.98
2019-02-27T12:05:31.368Z,14.45
2019-02-27T12:07:55.042Z,17.00
2019-02-27T12:10:31.151Z,13.88
2019-02-27T12:13:01.474Z,14.30
2019-02-27T12:15:28.570Z,16.35
2019-02-27T12:17:59.830Z,13.88
2019-02-27T12:20:24.339Z,13.20
2019-02-27T12:22:51.069Z,13.60
2019-02-27T12:25:20.179Z,17.17
2019-02-27T12:27:49.772Z,15.28
2019-02-27T12:30:21.229Z,17.70
2019-02-27T12:32:48.019Z,12.95
2019-02-27T12:35:22.049Z,15.32
2019-02-27T12:37:48.998Z,19.95
2019-02-27T12:40:21.184Z,29.05
2019-02-27T12:42:47.135Z,37.85
2019-02-27T12:45:17.054Z,55.30
2019-02-27T12:47:44.202Z,37.75
2019-02-27T12:50:17.915Z,18.35
2019-02-27T12:52:47.905Z,18.67
2019-02-27T12:55:13.403Z,14.87
2019-02-27T12:57:40.173Z,17.90
2019-02-27T13:00:18.225Z,18.60
2019-02-27T13:02:45.036Z,19.70
2019-02-27T13:05:17.989Z,19.60
2019-02-27T13:07:45.505Z,15.05
2019-02-27T13:10:20.833Z,17.95
2019-02-27T13:12:49.267Z,15.08
2019-02-27T13:15:19.691Z,16.62
2019-02-27T13:17:46.563Z,15.60
2019-02-27T13:20:17.625Z,17.02
2019-02-27T13:22:44.863Z,13.90
2019-02-27T13:25:11.907Z,13.88
2019-02-27T13:27:40.271Z,15.50
2019-02-27T13:30:15.350Z,14.13
2019-02-27T13:32:42.564Z,15.20
2019-02-27T13:35:09.628Z,70.00
2019-02-27T13:37:36.780Z,19.70
2019-02-27T13:40:14.313Z,18.25
2019-02-27T13:42:41.086Z,21.93
2019-02-27T13:45:23.787Z,19.17
2019-02-27T13:47:50.555Z,18.62
2019-02-27T13:50:22.390Z,17.98
2019-02-27T13:52:49.846Z,14.28
2019-02-27T13:55:20.526Z,12.98
2019-02-27T13:57:47.468Z,14.93
2019-02-27T14:00:25.975Z,14.35
2019-02-27T14:02:53.229Z,13.43
2019-02-27T14:05:20.578Z,15.30
2019-02-27T14:07:48.447Z,13.48
2019-02-27T14:10:20.601Z,11.53
2019-02-27T14:12:47.040Z,17.37
2019-02-27T14:15:17.693Z,13.70
2019-02-27T14:17:44.593Z,15.68
2019-02-27T14:20:18.863Z,13.78
2019-02-27T14:22:45.940Z,13.90
2019-02-27T14:25:16.530Z,13.72
2019-02-27T14:27:47.264Z,10.50
2019-02-27T14:30:20.560Z,12.40
2019-02-27T14:32:48.046Z,14.18
2019-02-27T14:35:14.904Z,12.25
2019-02-27T14:37:42.072Z,13.20
2019-02-27T14:40:16.745Z,13.65
2019-02-27T14:42:43.573Z,11.50
2019-02-27T14:45:17.097Z,15.25
2019-02-27T14:47:47.327Z,12.30
2019-02-27T14:50:17.509Z,15.25
2019-02-27T14:52:45.194Z,13.55
2019-02-27T14:55:14.547Z,13.88
2019-02-27T14:57:42.303Z,13.62
2019-02-27T15:00:24.700Z,15.18
2019-02-27T15:02:52.169Z,14.35
2019-02-27T15:05:19.750Z,16.20
2019-02-27T15:07:46.679Z,19.07
2019-02-27T15:10:17.457Z,13.55
2019-02-27T15:12:44.286Z,13.60
2019-02-27T15:15:17.357Z,14.87
2019-02-27T15:17:44.113Z,15.45
2019-02-27T15:20:20.270Z,14.80
2019-02-27T15:22:47.032Z,18.98
2019-02-27T15:25:16.485Z,14.33
2019-02-27T15:27:45.253Z,15.38
2019-02-27T15:30:31.079Z,17.32
2019-02-27T15:32:57.847Z,12.65
2019-02-27T15:35:24.636Z,16.25
2019-02-27T15:37:51.395Z,11.75
2019-02-27T15:40:28.377Z,14.50
2019-02-27T15:42:53.236Z,15.63
2019-02-27T15:45:25.173Z,12.50
2019-02-27T15:47:53.596Z,12.33
2019-02-27T15:50:32.783Z,15.75
2019-02-27T15:52:59.591Z,12.85
2019-02-27T15:55:26.365Z,13.93
2019-02-27T15:57:54.157Z,12.70
2019-02-27T16:00:25.641Z,12.70
2019-02-27T16:02:52.489Z,12.70
2019-02-27T16:05:19.748Z,13.08
2019-02-27T16:07:49.544Z,14.23
2019-02-27T16:10:25.912Z,12.68
2019-02-27T16:12:52.867Z,13.70
2019-02-27T16:15:20.999Z,24.57
2019-02-27T16:17:47.849Z,27.73
2019-02-27T16:20:17.640Z,24.32
2019-02-27T16:22:44.468Z,22.30
2019-02-27T16:25:18.239Z,16.48
2019-02-27T16:27:43.968Z,19.37
2019-02-27T16:30:19.446Z,24.07
2019-02-27T16:32:48.484Z,18.50
2019-02-27T16:35:15.087Z,22.32
2019-02-27T16:37:41.896Z,22.32
2019-02-27T16:40:18.935Z,18.70
2019-02-27T16:42:45.996Z,26.80
2019-02-27T16:45:23.012Z,19.37
2019-02-27T16:47:50.156Z,23.40
2019-02-27T16:50:24.317Z,22.02
2019-02-27T16:52:50.054Z,19.62
2019-02-27T16:55:22.870Z,19.10
2019-02-27T16:57:50.118Z,16.32
2019-02-27T17:00:23.312Z,13.83
2019-02-27T17:02:50.111Z,18.32
2019-02-27T17:05:17.054Z,18.65
2019-02-27T17:07:44.158Z,16.07
2019-02-27T17:10:17.866Z,18.55
2019-02-27T17:12:44.309Z,16.23
2019-02-27T17:15:11.701Z,14.30
2019-02-27T17:17:38.439Z,10.93
2019-02-27T17:20:14.880Z,13.18
2019-02-27T17:22:41.624Z,10.58
2019-02-27T17:25:12.937Z,13.80
2019-02-27T17:27:39.677Z,9.70
2019-02-27T17:30:30.646Z,16.20
2019-02-27T17:32:57.842Z,13.18
2019-02-27T17:35:24.618Z,10.15
2019-02-27T17:37:51.460Z,12.28
2019-02-27T17:40:18.251Z,8.13
2019-02-27T17:42:45.471Z,8.38
2019-02-27T17:45:24.928Z,10.78
2019-02-27T17:47:51.687Z,13.48
2019-02-27T17:50:18.923Z,13.75
2019-02-27T17:52:48.722Z,10.85
2019-02-27T17:55:16.215Z,13.30
2019-02-27T17:57:43.297Z,12.73
2019-02-27T18:00:30.809Z,16.42
2019-02-27T18:02:57.842Z,16.65
2019-02-27T18:05:25.339Z,13.80
2019-02-27T18:07:53.360Z,16.70
2019-02-27T18:10:20.199Z,15.60
2019-02-27T18:12:47.145Z,14.23
2019-02-27T18:15:22.987Z,12.70
2019-02-27T18:17:49.841Z,10.60
2019-02-27T18:20:16.676Z,12.70
2019-02-27T18:22:50.609Z,11.70
2019-02-27T18:25:18.158Z,14.73
2019-02-27T18:27:47.724Z,11.25
2019-02-27T18:30:25.042Z,14.00
2019-02-27T18:32:51.789Z,15.35
2019-02-27T18:35:19.108Z,13.70
2019-02-27T18:37:45.977Z,16.17
2019-02-27T18:40:14.957Z,13.88
2019-02-27T18:42:42.226Z,12.37
2019-02-27T18:45:22.551Z,13.32
2019-02-27T18:47:49.294Z,10.43
2019-02-27T18:50:16.704Z,11.65
2019-02-27T18:52:43.461Z,13.93
2019-02-27T18:55:15.331Z,15.25
2019-02-27T18:57:47.115Z,17.10
2019-02-27T19:00:36.192Z,14.38
2019-02-27T19:06:19.495Z,14.43
2019-02-27T19:09:07.239Z,15.80
2019-02-27T19:11:47.329Z,18.27
2019-02-27T19:14:39.528Z,14.28
2019-02-27T19:17:06.749Z,16.05
2019-02-27T19:19:41.511Z,15.98
2019-02-27T19:22:16.149Z,12.70
2019-02-27T19:24:43.059Z,15.13
2019-02-27T19:27:10.126Z,16.50
2019-02-27T19:29:41.327Z,14.45
2019-02-27T19:32:10.231Z,16.20
2019-02-27T19:34:36.991Z,16.67
2019-02-27T19:37:05.231Z,15.95
2019-02-27T19:39:33.955Z,19.70
2019-02-27T19:42:07.194Z,16.10
2019-02-27T19:44:47.660Z,15.95
2019-02-27T19:47:20.610Z,16.35
2019-02-27T19:49:47.911Z,16.10
2019-02-27T19:52:26.869Z,19.87
2019-02-27T19:54:56.702Z,12.78
2019-02-27T19:57:42.329Z,13.00
2019-02-27T20:00:21.420Z,13.48
2019-02-27T20:02:49.017Z,15.65
2019-02-27T20:05:21.297Z,14.80
2019-02-27T20:07:50.455Z,12.50
2019-02-27T20:10:17.589Z,12.93
2019-02-27T20:12:47.368Z,12.60
2019-02-27T20:15:19.615Z,10.15
2019-02-27T20:17:47.555Z,11.55
2019-02-27T20:20:18.224Z,11.68
2019-02-27T20:22:45.612Z,13.15
2019-02-27T20:25:17.967Z,13.08
2019-02-27T20:27:45.104Z,11.15
2019-02-27T20:30:16.514Z,14.47
2019-02-27T20:32:45.732Z,16.12
2019-02-27T20:35:13.205Z,13.03
2019-02-27T20:37:41.390Z,13.93
2019-02-27T20:40:11.787Z,15.90
2019-02-27T20:42:38.751Z,15.05
2019-02-27T20:45:13.181Z,15.15
2019-02-27T20:47:40.552Z,16.52
2019-02-27T20:50:12.403Z,15.45
2019-02-27T20:52:39.187Z,14.30
2019-02-27T20:55:06.138Z,12.85
2019-02-27T20:57:33.545Z,14.90
2019-02-27T21:00:02.646Z,13.05
2019-02-27T21:02:29.140Z,17.25
2019-02-27T21:04:56.260Z,13.78
2019-02-27T21:07:26.069Z,14.13
2019-02-27T21:09:54.412Z,13.25
2019-02-27T21:12:21.227Z,12.35
2019-02-27T21:14:48.213Z,15.48
2019-02-27T21:17:16.528Z,11.30
2019-02-27T21:19:43.976Z,16.23
2019-02-27T21:22:10.718Z,20.57
2019-02-27T21:24:40.559Z,13.68
2019-02-27T21:27:06.403Z,13.93
2019-02-27T21:29:33.256Z,15.25
2019-02-27T21:32:03.014Z,11.38
2019-02-27T21:34:30.077Z,13.48
2019-02-27T21:36:56.817Z,13.00
2019-02-27T21:39:25.176Z,14.95
2019-02-27T21:41:53.099Z,10.78
2019-02-27T21:44:25.536Z,13.05
2019-02-27T21:46:49.173Z,13.32
2019-02-27T21:49:16.990Z,15.68
2019-02-27T21:51:47.747Z,11.53
2019-02-27T21:54:13.618Z,13.08
2019-02-27T21:56:40.817Z,11.30
2019-02-27T21:59:07.851Z,11.30
2019-02-27T22:01:36.954Z,11.48
2019-02-27T22:04:03.829Z,8.98
2019-02-27T22:06:30.641Z,13.38
2019-02-27T22:09:19.738Z,11.78
2019-02-27T22:11:47.947Z,11.12
2019-02-27T22:14:16.725Z,10.45
2019-02-27T22:16:45.951Z,14.98
2019-02-27T22:19:12.718Z,14.78
2019-02-27T22:21:39.663Z,21.40
2019-02-27T22:24:06.462Z,13.13
2019-02-27T22:26:34.167Z,15.50
2019-02-27T22:29:02.187Z,13.98
2019-02-27T22:31:29.023Z,16.55
2019-02-27T22:33:57.010Z,17.85
2019-02-27T22:36:23.820Z,11.80
2019-02-27T22:38:50.620Z,14.53
2019-02-27T22:41:17.390Z,14.65
2019-02-27T22:43:45.583Z,16.85
2019-02-27T22:46:13.614Z,14.85
2019-02-27T22:48:41.674Z,14.65
2019-02-27T22:51:08.872Z,16.17
2019-02-27T22:53:35.643Z,13.15
2019-02-27T22:56:03.053Z,13.15
2019-02-27T22:58:30.143Z,13.25
2019-02-27T23:01:06.935Z,15.83
2019-02-27T23:03:44.364Z,10.75
2019-02-27T23:06:12.278Z,10.65
2019-02-27T23:08:40.250Z,13.13
2019-02-27T23:11:07.247Z,12.10
2019-02-27T23:13:34.347Z,11.48
2019-02-27T23:16:01.152Z,9.93
2019-02-27T23:18:29.591Z,10.43
2019-02-27T23:20:58.363Z,11.93
2019-02-27T23:23:25.032Z,9.35
2019-02-27T23:25:52.079Z,12.10
2019-02-27T23:28:19.516Z,10.58
2019-02-27T23:30:47.318Z,11.08
2019-02-27T23:33:15.210Z,10.63
2019-02-27T23:35:42.115Z,10.20
2019-02-27T23:38:08.849Z,12.28
2019-02-27T23:40:35.581Z,11.10
2019-02-27T23:43:03.390Z,11.60
2019-02-27T23:45:30.605Z,10.30
2019-02-27T23:47:59.249Z,12.82
2019-02-27T23:50:26.437Z,12.20
2019-02-27T23:52:53.415Z,10.45
2019-02-27T23:55:20.799Z,10.25
2019-02-27T23:57:47.555Z,12.80
